createdAt,value
2023-02-17T00:01:14.661Z,9.57
2023-02-17T00:03:48.207Z,9.58
2023-02-17T00:06:19.899Z,9.52
2023-02-17T00:08:50.450Z,9.55
2023-02-17T00:11:23.684Z,9.54
2023-02-17T00:13:56.191Z,9.51
2023-02-17T00:16:27.879Z,9.56
2023-02-17T00:18:59.074Z,9.50
2023-02-17T00:21:31.431Z,9.50
2023-02-17T00:24:04.071Z,9.62
2023-02-17T00:26:36.176Z,9.62
2023-02-17T00:29:05.718Z,9.54
2023-02-17T00:31:35.439Z,9.46
2023-02-17T00:34:05.281Z,9.48
2023-02-17T00:36:34.902Z,9.46
2023-02-17T00:39:04.844Z,9.45
2023-02-17T00:41:37.418Z,9.44
2023-02-17T00:44:07.191Z,9.45
2023-02-17T00:46:36.921Z,9.44
2023-02-17T00:49:07.671Z,9.46
2023-02-17T00:51:37.241Z,9.49
2023-02-17T00:54:08.032Z,9.43
2023-02-17T00:56:40.500Z,9.48
2023-02-17T00:59:10.661Z,9.45
2023-02-17T01:01:41.406Z,9.51
2023-02-17T01:04:13.099Z,9.54
2023-02-17T01:06:43.733Z,9.55
2023-02-17T01:09:16.974Z,9.42
2023-02-17T01:11:49.245Z,9.47
2023-02-17T01:14:18.882Z,9.48
2023-02-17T01:16:51.416Z,9.53
2023-02-17T01:19:22.115Z,9.48
2023-02-17T01:21:51.976Z,9.55
2023-02-17T01:24:21.542Z,9.54
2023-02-17T01:26:53.704Z,9.44
2023-02-17T01:29:23.323Z,9.51
2023-02-17T01:31:52.909Z,9.47
2023-02-17T01:34:22.469Z,9.41
2023-02-17T01:36:52.314Z,9.41
2023-02-17T01:39:21.881Z,9.37
2023-02-17T01:41:54.013Z,9.35
2023-02-17T01:44:27.736Z,9.34
2023-02-17T01:46:58.635Z,9.34
2023-02-17T01:49:35.509Z,9.33
2023-02-17T01:52:11.302Z,9.35
2023-02-17T01:54:45.211Z,9.34
2023-02-17T01:57:20.528Z,9.35
2023-02-17T01:59:51.253Z,9.33
2023-02-17T02:02:21.268Z,9.27
2023-02-17T02:04:54.020Z,9.33
2023-02-17T02:07:28.952Z,9.28
2023-02-17T02:10:00.837Z,9.26
2023-02-17T02:12:36.918Z,9.29
2023-02-17T02:15:10.898Z,9.26
2023-02-17T02:17:51.843Z,9.27
2023-02-17T02:20:35.799Z,9.22
2023-02-17T02:23:25.927Z,9.35
2023-02-17T02:26:21.465Z,9.35
2023-02-17T02:29:20.975Z,9.36
2023-02-17T02:32:06.057Z,9.41
2023-02-17T02:34:45.936Z,9.41
2023-02-17T02:37:19.538Z,9.48
2023-02-17T02:39:53.310Z,9.45
2023-02-17T02:42:26.842Z,9.43
2023-02-17T02:44:56.408Z,9.48
2023-02-17T02:47:53.803Z,9.52
2023-02-17T02:50:42.752Z,9.38
2023-02-17T02:53:32.540Z,9.43
2023-02-17T02:56:08.747Z,9.43
2023-02-17T02:58:45.637Z,9.43
2023-02-17T03:01:30.368Z,9.50
2023-02-17T03:04:10.099Z,9.50
2023-02-17T03:06:47.754Z,9.47
2023-02-17T03:09:22.246Z,9.46
2023-02-17T03:11:53.037Z,9.53
2023-02-17T03:14:25.229Z,9.52
2023-02-17T03:16:55.495Z,9.48
2023-02-17T03:19:27.993Z,9.56
2023-02-17T03:22:04.740Z,9.56
2023-02-17T03:24:35.377Z,9.59
2023-02-17T03:27:05.118Z,9.62
2023-02-17T03:29:35.969Z,9.66
2023-02-17T03:32:05.680Z,9.62
2023-02-17T03:34:35.804Z,9.61
2023-02-17T03:37:08.232Z,9.63
2023-02-17T03:39:37.825Z,9.67
2023-02-17T03:42:07.480Z,9.67
2023-02-17T03:44:37.319Z,9.64
2023-02-17T03:47:06.945Z,9.61
2023-02-17T03:49:36.694Z,9.67
2023-02-17T03:52:08.918Z,9.65
2023-02-17T03:54:38.674Z,9.65
2023-02-17T03:57:08.305Z,9.67
2023-02-17T03:59:38.619Z,9.65
2023-02-17T04:02:08.199Z,9.63
2023-02-17T04:04:39.228Z,9.64
2023-02-17T04:07:11.477Z,9.64
2023-02-17T04:09:41.145Z,9.62
2023-02-17T04:12:10.832Z,9.57
2023-02-17T04:14:40.463Z,9.61
2023-02-17T04:17:10.003Z,9.62
2023-02-17T04:19:39.768Z,9.70
2023-02-17T04:22:11.933Z,9.63
2023-02-17T04:24:41.499Z,9.69
2023-02-17T04:27:11.650Z,9.78
2023-02-17T04:29:41.253Z,9.70
2023-02-17T04:32:10.868Z,9.74
2023-02-17T04:34:40.716Z,9.75
2023-02-17T04:37:12.856Z,9.77
2023-02-17T04:39:42.482Z,9.86
2023-02-17T04:42:12.054Z,9.85
2023-02-17T04:44:41.944Z,9.79
2023-02-17T04:47:11.494Z,9.83
2023-02-17T04:49:41.115Z,9.90
2023-02-17T04:52:13.297Z,9.81
2023-02-17T04:54:42.831Z,9.90
2023-02-17T04:57:12.389Z,9.86
2023-02-17T04:59:42.000Z,9.88
2023-02-17T05:02:11.566Z,9.90
2023-02-17T05:04:41.170Z,9.83
2023-02-17T05:07:13.314Z,9.84
2023-02-17T05:09:42.886Z,9.83
2023-02-17T05:12:12.498Z,9.86
2023-02-17T05:14:42.485Z,9.88
2023-02-17T05:17:12.047Z,9.83
2023-02-17T05:19:41.630Z,9.86
2023-02-17T05:22:13.768Z,9.85
2023-02-17T05:24:43.357Z,9.83
2023-02-17T05:27:13.077Z,9.79
2023-02-17T05:29:42.653Z,9.77
2023-02-17T05:32:12.358Z,9.86
2023-02-17T05:34:42.642Z,9.94
2023-02-17T05:37:14.772Z,9.94
2023-02-17T05:39:44.349Z,9.96
2023-02-17T05:42:14.030Z,9.91
2023-02-17T05:44:43.644Z,9.94
2023-02-17T05:47:13.429Z,9.96
2023-02-17T05:49:42.982Z,10.04
2023-02-17T05:52:16.893Z,10.06
2023-02-17T05:54:46.507Z,10.12
2023-02-17T05:57:16.045Z,10.06
2023-02-17T05:59:45.598Z,10.02
2023-02-17T06:02:15.270Z,10.09
2023-02-17T06:04:44.854Z,10.13
2023-02-17T06:07:17.156Z,10.19
2023-02-17T06:09:48.707Z,10.13
2023-02-17T06:12:18.295Z,10.23
2023-02-17T06:14:47.845Z,10.30
2023-02-17T06:17:17.632Z,10.29
2023-02-17T06:19:47.218Z,10.28
2023-02-17T06:22:19.645Z,10.26
2023-02-17T06:24:49.472Z,10.27
2023-02-17T06:27:19.084Z,10.28
2023-02-17T06:29:48.627Z,10.18
2023-02-17T06:32:18.241Z,10.22
2023-02-17T06:34:47.889Z,10.15
2023-02-17T06:37:20.107Z,10.21
2023-02-17T06:39:49.699Z,10.21
2023-02-17T06:42:19.301Z,10.34
2023-02-17T06:44:48.841Z,10.39
2023-02-17T06:47:18.419Z,10.31
2023-02-17T06:49:48.038Z,10.31
2023-02-17T06:52:20.165Z,10.31
2023-02-17T06:54:49.997Z,10.34
2023-02-17T06:57:20.385Z,10.41
2023-02-17T06:59:50.203Z,10.58
2023-02-17T07:02:19.901Z,10.51
2023-02-17T07:04:49.519Z,10.50
2023-02-17T07:07:21.766Z,10.41
2023-02-17T07:09:51.570Z,10.51
2023-02-17T07:12:21.154Z,10.54
2023-02-17T07:14:50.689Z,10.66
2023-02-17T07:17:20.405Z,10.59
2023-02-17T07:19:49.949Z,10.64
2023-02-17T07:22:22.279Z,10.90
2023-02-17T07:24:51.836Z,10.79
2023-02-17T07:27:21.392Z,10.81
2023-02-17T07:29:50.965Z,10.70
2023-02-17T07:32:20.617Z,10.84
2023-02-17T07:34:50.447Z,10.73
2023-02-17T07:37:22.729Z,10.79
2023-02-17T07:39:52.476Z,10.86
2023-02-17T07:42:22.209Z,10.88
2023-02-17T07:44:52.221Z,11.03
2023-02-17T07:47:22.118Z,10.94
2023-02-17T07:49:51.687Z,11.09
2023-02-17T07:52:24.033Z,11.02
2023-02-17T07:54:53.561Z,11.03
2023-02-17T07:57:23.100Z,11.09
2023-02-17T07:59:52.771Z,11.17
2023-02-17T08:02:22.394Z,11.14
2023-02-17T08:04:54.551Z,11.16
2023-02-17T08:07:26.678Z,11.21
2023-02-17T08:10:11.447Z,11.18
2023-02-17T08:13:05.157Z,11.25
2023-02-17T08:15:36.554Z,11.19
2023-02-17T08:18:07.435Z,11.19
2023-02-17T08:20:37.067Z,11.25
2023-02-17T08:23:09.290Z,11.28
2023-02-17T08:25:39.420Z,11.25
2023-02-17T08:28:09.217Z,11.31
2023-02-17T08:30:39.396Z,11.41
2023-02-17T08:33:09.673Z,11.56
2023-02-17T08:35:39.284Z,11.60
2023-02-17T08:38:11.531Z,11.56
2023-02-17T08:40:41.194Z,11.50
2023-02-17T08:43:11.075Z,11.57
2023-02-17T08:45:40.913Z,11.69
2023-02-17T08:48:10.485Z,11.64
2023-02-17T08:50:40.135Z,11.76
2023-02-17T08:53:12.306Z,11.76
2023-02-17T08:55:49.188Z,11.92
2023-02-17T08:58:19.661Z,11.88
2023-02-17T09:00:49.352Z,11.78
2023-02-17T09:03:19.195Z,11.94
2023-02-17T09:05:50.015Z,11.91
2023-02-17T09:08:23.407Z,12.07
2023-02-17T09:10:53.562Z,12.06
2023-02-17T09:13:23.206Z,12.20
2023-02-17T09:15:54.078Z,12.15
2023-02-17T09:18:24.483Z,12.23
2023-02-17T09:20:54.642Z,12.38
2023-02-17T09:23:29.495Z,12.37
2023-02-17T09:26:05.681Z,12.44
2023-02-17T09:28:35.686Z,12.40
2023-02-17T09:31:11.407Z,12.60
2023-02-17T09:33:41.716Z,12.67
2023-02-17T09:36:13.815Z,12.69
2023-02-17T09:38:46.319Z,12.78
2023-02-17T09:41:21.793Z,12.76
2023-02-17T09:43:52.005Z,12.65
2023-02-17T09:46:26.847Z,12.51
2023-02-17T09:48:59.426Z,12.50
2023-02-17T09:51:33.082Z,12.60
2023-02-17T09:54:09.922Z,12.70
2023-02-17T09:56:43.187Z,12.75
2023-02-17T09:59:20.042Z,12.78
2023-02-17T10:01:51.792Z,12.71
2023-02-17T10:04:25.246Z,12.63
2023-02-17T10:07:02.664Z,12.81
2023-02-17T10:09:40.852Z,12.90
2023-02-17T10:12:15.849Z,12.91
2023-02-17T10:14:51.114Z,13.00
2023-02-17T10:17:26.188Z,12.97
2023-02-17T10:20:00.137Z,13.15
2023-02-17T10:22:29.759Z,13.05
2023-02-17T10:25:03.825Z,13.15
2023-02-17T10:27:42.229Z,13.27
2023-02-17T10:30:26.870Z,13.19
2023-02-17T10:33:03.699Z,13.20
2023-02-17T10:35:47.017Z,13.52
2023-02-17T10:38:20.686Z,13.54
2023-02-17T10:40:54.245Z,13.35
2023-02-17T10:43:29.398Z,13.32
2023-02-17T10:46:00.233Z,13.51
2023-02-17T10:48:35.956Z,13.47
2023-02-17T10:51:06.044Z,13.34
2023-02-17T10:53:39.248Z,13.48
2023-02-17T10:56:16.547Z,13.36
2023-02-17T10:58:55.181Z,13.24
2023-02-17T11:01:25.921Z,13.14
2023-02-17T11:04:06.354Z,13.25
2023-02-17T11:06:41.103Z,13.17
2023-02-17T11:09:23.431Z,13.15
2023-02-17T11:12:01.842Z,13.40
2023-02-17T11:14:33.720Z,13.63
2023-02-17T11:17:05.763Z,13.56
2023-02-17T11:19:37.536Z,13.70
2023-02-17T11:22:12.081Z,13.88
2023-02-17T11:24:42.506Z,13.81
2023-02-17T11:27:15.159Z,13.77
2023-02-17T11:29:44.745Z,13.68
2023-02-17T11:32:15.283Z,13.65
2023-02-17T11:34:46.661Z,13.66
2023-02-17T11:37:24.550Z,13.54
2023-02-17T11:39:56.143Z,13.55
2023-02-17T11:42:30.049Z,13.70
2023-02-17T11:45:01.950Z,13.63
2023-02-17T11:47:42.144Z,13.60
2023-02-17T11:50:40.747Z,13.77
2023-02-17T11:53:23.622Z,13.67
2023-02-17T11:56:03.367Z,13.67
2023-02-17T11:58:48.704Z,13.80
2023-02-17T12:01:32.516Z,13.68
2023-02-17T12:04:26.595Z,13.74
2023-02-17T12:07:09.409Z,13.85
2023-02-17T12:09:50.234Z,13.69
2023-02-17T12:12:29.285Z,13.74
2023-02-17T12:15:13.256Z,13.88
2023-02-17T12:17:54.475Z,13.81
2023-02-17T12:20:39.209Z,13.88
2023-02-17T12:23:24.286Z,13.96
2023-02-17T12:26:00.394Z,14.06
2023-02-17T12:28:44.249Z,14.19
2023-02-17T12:31:28.017Z,14.43
2023-02-17T12:34:03.885Z,14.43
2023-02-17T12:36:37.239Z,14.47
2023-02-17T12:39:16.220Z,14.61
2023-02-17T12:41:49.744Z,14.56
2023-02-17T12:44:23.713Z,14.57
2023-02-17T12:46:59.136Z,14.42
2023-02-17T12:49:38.690Z,14.29
2023-02-17T12:52:13.873Z,14.17
2023-02-17T12:54:47.847Z,14.04
2023-02-17T12:57:20.060Z,14.01
2023-02-17T12:59:52.217Z,14.06
2023-02-17T13:02:26.617Z,14.06
2023-02-17T13:04:58.598Z,14.12
2023-02-17T13:07:46.158Z,14.10
2023-02-17T13:10:31.621Z,14.15
2023-02-17T13:13:05.277Z,14.08
2023-02-17T13:15:38.861Z,14.19
2023-02-17T13:18:16.016Z,14.20
2023-02-17T13:20:57.330Z,14.20
2023-02-17T13:23:37.800Z,14.26
2023-02-17T13:26:29.677Z,14.21
2023-02-17T13:29:12.999Z,14.18
2023-02-17T13:31:51.835Z,14.31
2023-02-17T13:34:36.651Z,14.31
2023-02-17T13:37:20.360Z,14.33
2023-02-17T13:39:49.970Z,14.23
2023-02-17T13:42:44.714Z,14.35
2023-02-17T13:45:20.531Z,14.30
2023-02-17T13:47:51.677Z,14.40
2023-02-17T13:50:38.885Z,14.53
2023-02-17T13:53:26.443Z,14.59
2023-02-17T13:55:57.310Z,14.63
2023-02-17T13:58:29.680Z,14.57
2023-02-17T14:01:01.556Z,14.48
2023-02-17T14:03:33.428Z,14.32
2023-02-17T14:06:06.574Z,14.20
2023-02-17T14:08:39.646Z,14.15
2023-02-17T14:11:12.021Z,14.10
2023-02-17T14:13:44.615Z,14.12
2023-02-17T14:16:30.314Z,14.10
2023-02-17T14:19:08.440Z,14.19
2023-02-17T14:21:42.480Z,14.19
2023-02-17T14:24:26.844Z,14.19
2023-02-17T14:27:00.989Z,14.17
2023-02-17T14:29:41.570Z,14.10
2023-02-17T14:32:29.283Z,14.08
2023-02-17T14:35:10.442Z,14.05
2023-02-17T14:37:43.651Z,13.96
2023-02-17T14:40:19.450Z,13.86
2023-02-17T14:42:49.514Z,13.50
2023-02-17T14:45:19.675Z,13.37
2023-02-17T14:47:50.187Z,13.38
2023-02-17T14:50:20.096Z,13.32
2023-02-17T14:52:52.554Z,13.22
2023-02-17T14:55:32.118Z,13.23
2023-02-17T14:58:01.788Z,13.18
2023-02-17T15:00:31.746Z,13.04
2023-02-17T15:03:01.381Z,13.05
2023-02-17T15:05:31.041Z,13.04
2023-02-17T15:08:04.772Z,13.08
2023-02-17T15:10:36.033Z,13.11
2023-02-17T15:13:05.791Z,13.12
2023-02-17T15:15:39.318Z,13.02
2023-02-17T15:18:08.924Z,12.95
2023-02-17T15:20:39.427Z,12.88
2023-02-17T15:23:15.282Z,12.74
2023-02-17T15:25:44.959Z,12.65
2023-02-17T15:28:15.597Z,12.58
2023-02-17T15:30:49.201Z,12.61
2023-02-17T15:33:18.837Z,12.57
2023-02-17T15:35:48.888Z,12.51
2023-02-17T15:38:21.078Z,12.50
2023-02-17T15:40:51.067Z,12.34
2023-02-17T15:43:22.978Z,12.13
2023-02-17T15:45:55.240Z,11.98
2023-02-17T15:48:27.195Z,11.83
2023-02-17T15:50:57.057Z,11.74
2023-02-17T15:53:32.559Z,11.74
2023-02-17T15:56:02.462Z,11.68
2023-02-17T15:58:33.085Z,11.63
2023-02-17T16:01:05.071Z,11.56
2023-02-17T16:03:34.719Z,11.56
2023-02-17T16:06:04.367Z,11.44
2023-02-17T16:08:36.661Z,11.46
2023-02-17T16:11:06.423Z,11.37
2023-02-17T16:13:36.041Z,11.28
2023-02-17T16:16:06.198Z,11.18
2023-02-17T16:18:36.008Z,11.16
2023-02-17T16:21:05.543Z,11.24
2023-02-17T16:23:40.347Z,11.23
2023-02-17T16:26:18.195Z,11.21
2023-02-17T16:28:48.222Z,11.16
2023-02-17T16:31:20.136Z,11.19
2023-02-17T16:33:50.250Z,11.20
2023-02-17T16:36:21.942Z,11.22
2023-02-17T16:38:54.509Z,11.21
2023-02-17T16:41:24.170Z,11.29
2023-02-17T16:43:53.709Z,11.29
2023-02-17T16:46:30.249Z,11.28
2023-02-17T16:49:01.344Z,11.34
2023-02-17T16:51:32.146Z,11.28
2023-02-17T16:54:04.346Z,11.26
2023-02-17T16:56:39.036Z,11.31
2023-02-17T16:59:08.790Z,11.39
2023-02-17T17:01:38.472Z,11.39
2023-02-17T17:04:08.739Z,11.34
2023-02-17T17:06:39.730Z,11.38
2023-02-17T17:09:18.551Z,11.34
2023-02-17T17:11:48.258Z,11.37
2023-02-17T17:14:20.590Z,11.40
2023-02-17T17:16:54.821Z,11.33
2023-02-17T17:19:24.488Z,11.45
2023-02-17T17:21:54.353Z,11.43
2023-02-17T17:24:26.560Z,11.44
2023-02-17T17:26:56.241Z,11.54
2023-02-17T17:29:25.929Z,11.43
2023-02-17T17:31:55.599Z,11.48
2023-02-17T17:34:25.323Z,11.51
2023-02-17T17:36:54.891Z,11.52
2023-02-17T17:39:28.040Z,11.57
2023-02-17T17:41:58.787Z,11.49
2023-02-17T17:44:29.257Z,11.55
2023-02-17T17:46:58.885Z,11.60
2023-02-17T17:49:28.532Z,11.52
2023-02-17T17:51:58.192Z,11.55
2023-02-17T17:54:30.381Z,11.52
2023-02-17T17:56:59.971Z,11.55
2023-02-17T17:59:29.803Z,11.49
2023-02-17T18:01:59.465Z,11.41
2023-02-17T18:04:29.236Z,11.38
2023-02-17T18:07:00.414Z,11.43
2023-02-17T18:09:38.346Z,11.54
2023-02-17T18:12:12.626Z,11.43
2023-02-17T18:14:44.017Z,11.39
2023-02-17T18:17:18.406Z,11.47
2023-02-17T18:19:49.291Z,11.35
2023-02-17T18:22:18.910Z,11.31
2023-02-17T18:24:51.253Z,11.39
2023-02-17T18:27:22.031Z,11.43
2023-02-17T18:29:51.820Z,11.38
2023-02-17T18:32:22.141Z,11.39
2023-02-17T18:34:51.723Z,11.46
2023-02-17T18:37:21.540Z,11.37
2023-02-17T18:39:53.728Z,11.51
2023-02-17T18:42:23.488Z,11.52
2023-02-17T18:44:53.645Z,11.44
2023-02-17T18:47:23.350Z,11.43
2023-02-17T18:49:53.077Z,11.34
2023-02-17T18:52:22.665Z,11.29
2023-02-17T18:54:54.857Z,11.32
2023-02-17T18:57:24.502Z,11.39
2023-02-17T18:59:54.333Z,11.34
2023-02-17T19:02:24.048Z,11.44
2023-02-17T19:04:55.645Z,11.49
2023-02-17T19:07:25.496Z,11.41
2023-02-17T19:09:57.743Z,11.42
2023-02-17T19:12:27.929Z,11.45
2023-02-17T19:14:58.148Z,11.26
2023-02-17T19:17:28.546Z,11.08
2023-02-17T19:19:58.174Z,10.59
2023-02-17T19:22:27.816Z,10.50
2023-02-17T19:25:00.189Z,10.51
2023-02-17T19:27:31.209Z,10.38
2023-02-17T19:30:00.867Z,10.21
2023-02-17T19:32:30.615Z,9.97
2023-02-17T19:35:00.297Z,9.95
2023-02-17T19:37:30.053Z,9.94
2023-02-17T19:40:02.299Z,9.91
2023-02-17T19:42:31.882Z,9.97
2023-02-17T19:45:01.439Z,9.95
2023-02-17T19:47:31.407Z,9.87
2023-02-17T19:50:01.140Z,9.84
2023-02-17T19:52:30.941Z,9.76
2023-02-17T19:55:03.178Z,9.74
2023-02-17T19:57:32.716Z,9.68
2023-02-17T20:00:02.284Z,9.63
2023-02-17T20:02:34.417Z,9.65
2023-02-17T20:05:04.494Z,9.59
2023-02-17T20:07:34.437Z,9.48
2023-02-17T20:10:09.069Z,9.45
2023-02-17T20:12:38.771Z,9.44
2023-02-17T20:15:09.613Z,9.35
2023-02-17T20:17:40.013Z,9.30
2023-02-17T20:20:12.509Z,9.30
2023-02-17T20:22:42.165Z,9.29
2023-02-17T20:25:14.363Z,9.23
2023-02-17T20:27:43.920Z,9.17
2023-02-17T20:30:14.306Z,9.21
2023-02-17T20:32:43.953Z,9.15
2023-02-17T20:35:17.516Z,9.14
2023-02-17T20:37:47.103Z,9.10
2023-02-17T20:40:20.080Z,9.02
2023-02-17T20:42:49.615Z,9.10
2023-02-17T20:45:19.452Z,8.98
2023-02-17T20:47:49.061Z,9.03
2023-02-17T20:50:21.121Z,8.98
2023-02-17T20:52:51.283Z,8.95
2023-02-17T20:55:23.653Z,8.88
2023-02-17T20:57:53.327Z,8.82
2023-02-17T21:00:26.132Z,8.81
2023-02-17T21:02:56.104Z,8.71
2023-02-17T21:05:27.417Z,8.73
2023-02-17T21:07:59.951Z,8.64
2023-02-17T21:10:35.265Z,8.62
2023-02-17T21:13:04.976Z,8.66
2023-02-17T21:15:35.674Z,8.64
2023-02-17T21:18:05.708Z,8.50
2023-02-17T21:20:36.788Z,8.52
2023-02-17T21:23:06.930Z,8.50
2023-02-17T21:25:39.129Z,8.52
2023-02-17T21:28:08.710Z,8.44
2023-02-17T21:30:38.429Z,8.40
2023-02-17T21:33:08.022Z,8.45
2023-02-17T21:35:37.648Z,8.40
2023-02-17T21:38:07.297Z,8.48
2023-02-17T21:40:39.543Z,8.47
2023-02-17T21:43:21.654Z,8.39
2023-02-17T21:45:51.281Z,8.43
2023-02-17T21:48:20.913Z,8.40
2023-02-17T21:50:50.469Z,8.43
2023-02-17T21:53:20.306Z,8.47
2023-02-17T21:55:52.613Z,8.45
2023-02-17T21:58:22.221Z,8.38
2023-02-17T22:00:52.052Z,8.38
2023-02-17T22:03:21.690Z,8.38
2023-02-17T22:05:51.279Z,8.37
2023-02-17T22:08:21.013Z,8.30
2023-02-17T22:10:53.308Z,8.28
2023-02-17T22:13:22.879Z,8.12
2023-02-17T22:16:00.090Z,8.05
2023-02-17T22:18:29.758Z,8.14
2023-02-17T22:20:59.324Z,7.94
2023-02-17T22:23:28.952Z,8.05
2023-02-17T22:26:01.107Z,7.99
2023-02-17T22:28:30.646Z,8.03
2023-02-17T22:31:00.399Z,7.96
2023-02-17T22:33:30.211Z,7.89
2023-02-17T22:36:01.668Z,7.85
2023-02-17T22:38:31.683Z,7.89
2023-02-17T22:41:07.939Z,7.85
2023-02-17T22:43:38.802Z,7.78
2023-02-17T22:46:09.888Z,7.77
2023-02-17T22:48:41.728Z,7.66
2023-02-17T22:51:14.101Z,7.66
2023-02-17T22:53:44.764Z,7.72
2023-02-17T22:56:17.696Z,7.64
2023-02-17T22:58:47.361Z,7.68
2023-02-17T23:04:35.369Z,7.52
2023-02-17T23:07:04.950Z,7.60
2023-02-17T23:09:34.804Z,7.50
2023-02-17T23:12:07.175Z,7.54
2023-02-17T23:14:38.875Z,7.50
2023-02-17T23:17:11.302Z,7.55
2023-02-17T23:19:43.381Z,7.50
2023-02-17T23:22:16.410Z,7.45
2023-02-17T23:24:46.017Z,7.44
2023-02-17T23:27:18.320Z,7.47
2023-02-17T23:29:47.999Z,7.43
2023-02-17T23:32:17.712Z,7.41
2023-02-17T23:34:47.361Z,7.38
2023-02-17T23:37:17.000Z,7.42
2023-02-17T23:39:46.938Z,7.38
2023-02-17T23:42:19.160Z,7.36
2023-02-17T23:44:48.788Z,7.38
2023-02-17T23:47:18.357Z,7.31
2023-02-17T23:49:47.913Z,7.34
2023-02-17T23:52:17.539Z,7.37
2023-02-17T23:54:47.248Z,7.34
2023-02-17T23:57:19.419Z,7.34
2023-02-17T23:59:49.033Z,7.28
